sensor_id;sensor_type;location;lat;lon;timestamp;P1;durP1;ratioP1;P2;durP2;ratioP2
23123;SDS011;11731;48.592;8.858;2023-07-22T00:00:24;4.47;;;2.97;;
23123;SDS011;11731;48.592;8.858;2023-07-22T00:02:51;3.57;;;2.50;;
23123;SDS011;11731;48.592;8.858;2023-07-22T00:05:18;2.70;;;2.50;;
23123;SDS011;11731;48.592;8.858;2023-07-22T00:07:50;4.50;;;2.73;;
23123;SDS011;11731;48.592;8.858;2023-07-22T00:10:17;5.37;;;2.93;;
23123;SDS011;11731;48.592;8.858;2023-07-22T00:12:45;3.00;;;2.37;;
23123;SDS011;11731;48.592;8.858;2023-07-22T00:15:12;2.93;;;2.30;;
23123;SDS011;11731;48.592;8.858;2023-07-22T00:17:39;2.67;;;2.40;;
23123;SDS011;11731;48.592;8.858;2023-07-22T00:20:07;2.80;;;2.50;;
23123;SDS011;11731;48.592;8.858;2023-07-22T00:22:36;2.77;;;2.47;;
23123;SDS011;11731;48.592;8.858;2023-07-22T00:25:06;5.00;;;2.43;;
23123;SDS011;11731;48.592;8.858;2023-07-22T00:27:35;3.33;;;2.07;;
23123;SDS011;11731;48.592;8.858;2023-07-22T00:30:03;4.40;;;2.40;;
23123;SDS011;11731;48.592;8.858;2023-07-22T00:32:31;4.97;;;2.77;;
23123;SDS011;11731;48.592;8.858;2023-07-22T00:34:58;4.07;;;2.57;;
23123;SDS011;11731;48.592;8.858;2023-07-22T00:37:25;3.40;;;2.70;;
23123;SDS011;11731;48.592;8.858;2023-07-22T00:39:52;2.53;;;2.07;;
23123;SDS011;11731;48.592;8.858;2023-07-22T00:42:22;3.30;;;2.80;;
23123;SDS011;11731;48.592;8.858;2023-07-22T00:44:51;2.93;;;2.60;;
23123;SDS011;11731;48.592;8.858;2023-07-22T00:47:20;4.00;;;2.87;;
23123;SDS011;11731;48.592;8.858;2023-07-22T00:49:48;6.83;;;2.40;;
23123;SDS011;11731;48.592;8.858;2023-07-22T00:52:15;3.40;;;2.50;;
23123;SDS011;11731;48.592;8.858;2023-07-22T00:54:42;5.27;;;2.87;;
23123;SDS011;11731;48.592;8.858;2023-07-22T00:57:10;3.30;;;2.87;;
23123;SDS011;11731;48.592;8.858;2023-07-22T00:59:39;3.07;;;2.37;;
23123;SDS011;11731;48.592;8.858;2023-07-22T01:02:06;4.27;;;2.83;;
23123;SDS011;11731;48.592;8.858;2023-07-22T01:04:34;5.77;;;2.80;;
23123;SDS011;11731;48.592;8.858;2023-07-22T01:07:02;2.87;;;2.60;;
23123;SDS011;11731;48.592;8.858;2023-07-22T01:09:34;4.67;;;2.37;;
23123;SDS011;11731;48.592;8.858;2023-07-22T01:12:02;6.20;;;2.70;;
23123;SDS011;11731;48.592;8.858;2023-07-22T01:14:30;3.20;;;2.53;;
23123;SDS011;11731;48.592;8.858;2023-07-22T01:17:00;3.07;;;2.70;;
23123;SDS011;11731;48.592;8.858;2023-07-22T01:19:27;3.17;;;2.53;;
23123;SDS011;11731;48.592;8.858;2023-07-22T01:21:55;3.77;;;2.53;;
23123;SDS011;11731;48.592;8.858;2023-07-22T01:24:25;3.30;;;2.50;;
23123;SDS011;11731;48.592;8.858;2023-07-22T01:26:53;3.50;;;2.63;;
23123;SDS011;11731;48.592;8.858;2023-07-22T01:29:21;3.17;;;2.67;;
23123;SDS011;11731;48.592;8.858;2023-07-22T01:31:51;3.07;;;2.57;;
23123;SDS011;11731;48.592;8.858;2023-07-22T01:34:19;3.63;;;3.00;;
23123;SDS011;11731;48.592;8.858;2023-07-22T01:36:47;2.73;;;2.47;;
23123;SDS011;11731;48.592;8.858;2023-07-22T01:39:15;3.40;;;2.90;;
23123;SDS011;11731;48.592;8.858;2023-07-22T01:41:45;3.23;;;2.70;;
23123;SDS011;11731;48.592;8.858;2023-07-22T01:44:13;4.40;;;3.10;;
23123;SDS011;11731;48.592;8.858;2023-07-22T01:46:40;4.10;;;3.13;;
23123;SDS011;11731;48.592;8.858;2023-07-22T01:49:10;3.47;;;3.17;;
23123;SDS011;11731;48.592;8.858;2023-07-22T01:51:37;4.07;;;3.10;;
23123;SDS011;11731;48.592;8.858;2023-07-22T01:54:05;3.80;;;3.40;;
23123;SDS011;11731;48.592;8.858;2023-07-22T01:59:57;4.93;;;3.23;;
23123;SDS011;11731;48.592;8.858;2023-07-22T02:02:24;5.67;;;3.67;;
23123;SDS011;11731;48.592;8.858;2023-07-22T02:04:51;6.33;;;4.00;;
23123;SDS011;11731;48.592;8.858;2023-07-22T02:07:18;7.60;;;4.30;;
23123;SDS011;11731;48.592;8.858;2023-07-22T02:09:45;4.50;;;3.83;;
23123;SDS011;11731;48.592;8.858;2023-07-22T02:12:12;6.63;;;4.00;;
23123;SDS011;11731;48.592;8.858;2023-07-22T02:14:39;5.93;;;3.13;;
23123;SDS011;11731;48.592;8.858;2023-07-22T02:17:08;4.63;;;3.40;;
23123;SDS011;11731;48.592;8.858;2023-07-22T02:19:35;4.47;;;3.27;;
23123;SDS011;11731;48.592;8.858;2023-07-22T02:22:03;4.93;;;3.40;;
23123;SDS011;11731;48.592;8.858;2023-07-22T02:24:30;3.73;;;3.10;;
23123;SDS011;11731;48.592;8.858;2023-07-22T02:26:58;6.40;;;3.47;;
23123;SDS011;11731;48.592;8.858;2023-07-22T02:29:25;4.73;;;2.87;;
23123;SDS011;11731;48.592;8.858;2023-07-22T02:31:52;5.77;;;2.90;;
23123;SDS011;11731;48.592;8.858;2023-07-22T02:34:21;4.10;;;3.07;;
23123;SDS011;11731;48.592;8.858;2023-07-22T02:36:48;2.87;;;2.57;;
23123;SDS011;11731;48.592;8.858;2023-07-22T02:39:14;5.30;;;3.17;;
23123;SDS011;11731;48.592;8.858;2023-07-22T02:41:41;6.10;;;3.40;;
23123;SDS011;11731;48.592;8.858;2023-07-22T02:44:09;4.20;;;3.07;;
23123;SDS011;11731;48.592;8.858;2023-07-22T02:46:37;4.87;;;2.80;;
23123;SDS011;11731;48.592;8.858;2023-07-22T02:49:04;4.73;;;3.17;;
23123;SDS011;11731;48.592;8.858;2023-07-22T02:51:33;3.83;;;3.43;;
23123;SDS011;11731;48.592;8.858;2023-07-22T02:54:00;5.70;;;3.40;;
23123;SDS011;11731;48.592;8.858;2023-07-22T02:56:31;7.40;;;3.67;;
23123;SDS011;11731;48.592;8.858;2023-07-22T02:58:58;3.87;;;3.10;;
23123;SDS011;11731;48.592;8.858;2023-07-22T03:01:26;5.00;;;3.63;;
23123;SDS011;11731;48.592;8.858;2023-07-22T03:03:54;3.97;;;3.47;;
23123;SDS011;11731;48.592;8.858;2023-07-22T03:06:21;3.80;;;3.23;;
23123;SDS011;11731;48.592;8.858;2023-07-22T03:08:50;6.23;;;4.00;;
23123;SDS011;11731;48.592;8.858;2023-07-22T03:11:18;5.60;;;3.63;;
23123;SDS011;11731;48.592;8.858;2023-07-22T03:13:45;4.43;;;3.87;;
23123;SDS011;11731;48.592;8.858;2023-07-22T03:16:12;5.23;;;3.37;;
23123;SDS011;11731;48.592;8.858;2023-07-22T03:18:40;6.10;;;3.50;;
23123;SDS011;11731;48.592;8.858;2023-07-22T03:21:08;4.27;;;3.30;;
23123;SDS011;11731;48.592;8.858;2023-07-22T03:23:35;4.90;;;4.00;;
23123;SDS011;11731;48.592;8.858;2023-07-22T03:26:03;8.43;;;3.87;;
23123;SDS011;11731;48.592;8.858;2023-07-22T03:28:31;3.60;;;3.10;;
23123;SDS011;11731;48.592;8.858;2023-07-22T03:30:58;4.30;;;3.40;;
23123;SDS011;11731;48.592;8.858;2023-07-22T03:33:26;3.77;;;3.27;;
23123;SDS011;11731;48.592;8.858;2023-07-22T03:35:52;4.33;;;3.10;;
23123;SDS011;11731;48.592;8.858;2023-07-22T03:38:20;4.80;;;3.80;;
23123;SDS011;11731;48.592;8.858;2023-07-22T03:40:47;4.13;;;3.10;;
23123;SDS011;11731;48.592;8.858;2023-07-22T03:43:15;5.33;;;3.53;;
23123;SDS011;11731;48.592;8.858;2023-07-22T03:45:42;4.20;;;3.77;;
23123;SDS011;11731;48.592;8.858;2023-07-22T03:48:09;4.53;;;3.30;;
23123;SDS011;11731;48.592;8.858;2023-07-22T03:50:36;5.13;;;4.03;;
23123;SDS011;11731;48.592;8.858;2023-07-22T03:53:03;4.83;;;3.20;;
23123;SDS011;11731;48.592;8.858;2023-07-22T03:55:30;6.73;;;3.70;;
23123;SDS011;11731;48.592;8.858;2023-07-22T03:57:58;7.17;;;3.83;;
23123;SDS011;11731;48.592;8.858;2023-07-22T04:00:30;5.43;;;3.47;;
23123;SDS011;11731;48.592;8.858;2023-07-22T04:02:57;6.20;;;3.93;;
23123;SDS011;11731;48.592;8.858;2023-07-22T04:05:24;6.10;;;3.57;;
23123;SDS011;11731;48.592;8.858;2023-07-22T04:07:51;4.77;;;3.07;;
23123;SDS011;11731;48.592;8.858;2023-07-22T04:10:17;5.10;;;3.93;;
23123;SDS011;11731;48.592;8.858;2023-07-22T04:12:44;4.77;;;3.70;;
23123;SDS011;11731;48.592;8.858;2023-07-22T04:15:11;5.83;;;3.97;;
23123;SDS011;11731;48.592;8.858;2023-07-22T04:17:40;5.77;;;3.70;;
23123;SDS011;11731;48.592;8.858;2023-07-22T04:20:17;4.40;;;3.63;;
23123;SDS011;11731;48.592;8.858;2023-07-22T04:22:44;5.87;;;3.47;;
23123;SDS011;11731;48.592;8.858;2023-07-22T04:25:11;4.63;;;3.77;;
23123;SDS011;11731;48.592;8.858;2023-07-22T04:27:38;4.90;;;3.70;;
23123;SDS011;11731;48.592;8.858;2023-07-22T04:30:08;4.97;;;3.23;;
23123;SDS011;11731;48.592;8.858;2023-07-22T04:32:50;8.63;;;3.60;;
23123;SDS011;11731;48.592;8.858;2023-07-22T04:35:20;4.63;;;3.50;;
23123;SDS011;11731;48.592;8.858;2023-07-22T04:37:47;4.43;;;3.37;;
23123;SDS011;11731;48.592;8.858;2023-07-22T04:40:14;5.33;;;3.20;;
23123;SDS011;11731;48.592;8.858;2023-07-22T04:42:42;3.97;;;3.07;;
23123;SDS011;11731;48.592;8.858;2023-07-22T04:45:10;4.17;;;3.60;;
23123;SDS011;11731;48.592;8.858;2023-07-22T04:47:37;3.90;;;3.00;;
23123;SDS011;11731;48.592;8.858;2023-07-22T04:50:07;6.23;;;2.93;;
23123;SDS011;11731;48.592;8.858;2023-07-22T04:52:35;4.57;;;3.30;;
23123;SDS011;11731;48.592;8.858;2023-07-22T04:55:02;6.13;;;3.20;;
23123;SDS011;11731;48.592;8.858;2023-07-22T04:57:33;4.63;;;3.00;;
23123;SDS011;11731;48.592;8.858;2023-07-22T05:00:04;3.30;;;2.80;;
23123;SDS011;11731;48.592;8.858;2023-07-22T05:02:34;4.07;;;2.70;;
23123;SDS011;11731;48.592;8.858;2023-07-22T05:05:01;4.13;;;2.73;;
23123;SDS011;11731;48.592;8.858;2023-07-22T05:07:33;3.73;;;2.90;;
23123;SDS011;11731;48.592;8.858;2023-07-22T05:10:02;5.00;;;3.03;;
23123;SDS011;11731;48.592;8.858;2023-07-22T05:12:32;3.83;;;3.10;;
23123;SDS011;11731;48.592;8.858;2023-07-22T05:15:01;4.47;;;3.00;;
23123;SDS011;11731;48.592;8.858;2023-07-22T05:17:29;4.47;;;3.27;;
23123;SDS011;11731;48.592;8.858;2023-07-22T05:19:59;3.40;;;2.80;;
23123;SDS011;11731;48.592;8.858;2023-07-22T05:22:26;2.67;;;2.47;;
23123;SDS011;11731;48.592;8.858;2023-07-22T05:24:55;3.53;;;2.63;;
23123;SDS011;11731;48.592;8.858;2023-07-22T05:27:22;4.43;;;2.83;;
23123;SDS011;11731;48.592;8.858;2023-07-22T05:29:50;3.03;;;2.57;;
23123;SDS011;11731;48.592;8.858;2023-07-22T05:32:17;2.73;;;2.43;;
23123;SDS011;11731;48.592;8.858;2023-07-22T05:34:49;3.40;;;3.00;;
23123;SDS011;11731;48.592;8.858;2023-07-22T05:37:16;3.37;;;2.73;;
23123;SDS011;11731;48.592;8.858;2023-07-22T05:39:43;3.47;;;2.90;;
23123;SDS011;11731;48.592;8.858;2023-07-22T05:42:14;3.87;;;2.90;;
23123;SDS011;11731;48.592;8.858;2023-07-22T05:44:41;3.83;;;2.60;;
23123;SDS011;11731;48.592;8.858;2023-07-22T05:47:08;7.03;;;2.73;;
23123;SDS011;11731;48.592;8.858;2023-07-22T05:49:35;4.33;;;2.90;;
23123;SDS011;11731;48.592;8.858;2023-07-22T05:52:05;3.43;;;2.80;;
23123;SDS011;11731;48.592;8.858;2023-07-22T05:54:32;6.73;;;2.60;;
23123;SDS011;11731;48.592;8.858;2023-07-22T05:56:59;3.83;;;2.60;;
23123;SDS011;11731;48.592;8.858;2023-07-22T05:59:29;4.43;;;2.80;;
23123;SDS011;11731;48.592;8.858;2023-07-22T06:01:56;3.03;;;2.73;;
23123;SDS011;11731;48.592;8.858;2023-07-22T06:04:23;4.73;;;2.90;;
23123;SDS011;11731;48.592;8.858;2023-07-22T06:06:50;3.63;;;2.30;;
23123;SDS011;11731;48.592;8.858;2023-07-22T06:09:17;3.73;;;2.90;;
23123;SDS011;11731;48.592;8.858;2023-07-22T06:11:45;5.17;;;2.80;;
23123;SDS011;11731;48.592;8.858;2023-07-22T06:14:14;3.53;;;2.43;;
23123;SDS011;11731;48.592;8.858;2023-07-22T06:16:51;3.67;;;2.37;;
23123;SDS011;11731;48.592;8.858;2023-07-22T06:19:20;3.07;;;2.50;;
23123;SDS011;11731;48.592;8.858;2023-07-22T06:21:48;4.57;;;3.00;;
23123;SDS011;11731;48.592;8.858;2023-07-22T06:24:15;5.47;;;2.93;;
23123;SDS011;11731;48.592;8.858;2023-07-22T06:26:42;6.33;;;2.80;;
23123;SDS011;11731;48.592;8.858;2023-07-22T06:29:09;3.70;;;2.80;;
23123;SDS011;11731;48.592;8.858;2023-07-22T06:31:36;4.93;;;2.40;;
23123;SDS011;11731;48.592;8.858;2023-07-22T06:34:07;4.40;;;2.80;;
23123;SDS011;11731;48.592;8.858;2023-07-22T06:36:34;4.50;;;2.80;;
23123;SDS011;11731;48.592;8.858;2023-07-22T06:39:01;4.17;;;2.67;;
23123;SDS011;11731;48.592;8.858;2023-07-22T06:41:29;6.30;;;2.53;;
23123;SDS011;11731;48.592;8.858;2023-07-22T06:43:55;3.70;;;2.70;;
23123;SDS011;11731;48.592;8.858;2023-07-22T06:46:22;3.47;;;2.47;;
23123;SDS011;11731;48.592;8.858;2023-07-22T06:48:49;6.10;;;2.53;;
23123;SDS011;11731;48.592;8.858;2023-07-22T06:51:17;4.77;;;2.30;;
23123;SDS011;11731;48.592;8.858;2023-07-22T06:53:46;3.07;;;2.43;;
23123;SDS011;11731;48.592;8.858;2023-07-22T06:56:13;5.00;;;2.73;;
23123;SDS011;11731;48.592;8.858;2023-07-22T06:58:51;4.00;;;2.33;;
23123;SDS011;11731;48.592;8.858;2023-07-22T07:01:34;2.40;;;2.10;;
23123;SDS011;11731;48.592;8.858;2023-07-22T07:04:01;3.27;;;2.50;;
23123;SDS011;11731;48.592;8.858;2023-07-22T07:06:39;4.20;;;2.10;;
23123;SDS011;11731;48.592;8.858;2023-07-22T07:09:05;4.73;;;2.60;;
23123;SDS011;11731;48.592;8.858;2023-07-22T07:11:41;3.17;;;2.20;;
23123;SDS011;11731;48.592;8.858;2023-07-22T07:14:32;2.83;;;2.53;;
23123;SDS011;11731;48.592;8.858;2023-07-22T07:16:59;4.57;;;2.40;;
23123;SDS011;11731;48.592;8.858;2023-07-22T07:19:26;4.13;;;2.20;;
23123;SDS011;11731;48.592;8.858;2023-07-22T07:21:55;2.70;;;2.17;;
23123;SDS011;11731;48.592;8.858;2023-07-22T07:24:22;3.60;;;2.23;;
23123;SDS011;11731;48.592;8.858;2023-07-22T07:26:49;3.43;;;2.60;;
23123;SDS011;11731;48.592;8.858;2023-07-22T07:29:15;3.60;;;2.53;;
23123;SDS011;11731;48.592;8.858;2023-07-22T07:31:42;3.50;;;2.40;;
23123;SDS011;11731;48.592;8.858;2023-07-22T07:34:09;4.87;;;2.30;;
23123;SDS011;11731;48.592;8.858;2023-07-22T07:36:36;3.50;;;2.30;;
23123;SDS011;11731;48.592;8.858;2023-07-22T07:39:05;2.27;;;2.07;;
23123;SDS011;11731;48.592;8.858;2023-07-22T07:41:32;3.70;;;2.50;;
23123;SDS011;11731;48.592;8.858;2023-07-22T07:44:00;6.27;;;3.73;;
23123;SDS011;11731;48.592;8.858;2023-07-22T07:46:27;2.77;;;2.20;;
23123;SDS011;11731;48.592;8.858;2023-07-22T07:48:55;2.63;;;2.10;;
23123;SDS011;11731;48.592;8.858;2023-07-22T07:51:24;3.80;;;2.30;;
23123;SDS011;11731;48.592;8.858;2023-07-22T07:53:55;4.37;;;2.40;;
23123;SDS011;11731;48.592;8.858;2023-07-22T07:56:24;5.70;;;2.13;;
23123;SDS011;11731;48.592;8.858;2023-07-22T07:58:52;3.07;;;2.07;;
23123;SDS011;11731;48.592;8.858;2023-07-22T08:01:19;3.50;;;2.10;;
23123;SDS011;11731;48.592;8.858;2023-07-22T08:03:47;3.23;;;2.03;;
23123;SDS011;11731;48.592;8.858;2023-07-22T08:06:14;3.70;;;1.93;;
23123;SDS011;11731;48.592;8.858;2023-07-22T08:08:41;4.23;;;2.00;;
23123;SDS011;11731;48.592;8.858;2023-07-22T08:11:09;3.63;;;1.77;;
23123;SDS011;11731;48.592;8.858;2023-07-22T08:13:40;4.17;;;1.97;;
23123;SDS011;11731;48.592;8.858;2023-07-22T08:16:09;1.40;;;1.30;;
23123;SDS011;11731;48.592;8.858;2023-07-22T08:18:37;2.60;;;1.90;;
23123;SDS011;11731;48.592;8.858;2023-07-22T08:21:04;1.57;;;1.47;;
23123;SDS011;11731;48.592;8.858;2023-07-22T08:23:33;2.10;;;1.90;;
23123;SDS011;11731;48.592;8.858;2023-07-22T08:26:01;2.40;;;1.63;;
23123;SDS011;11731;48.592;8.858;2023-07-22T08:28:29;1.87;;;1.57;;
23123;SDS011;11731;48.592;8.858;2023-07-22T08:30:57;4.10;;;1.60;;
23123;SDS011;11731;48.592;8.858;2023-07-22T08:33:25;1.70;;;1.37;;
23123;SDS011;11731;48.592;8.858;2023-07-22T08:35:52;1.77;;;1.40;;
23123;SDS011;11731;48.592;8.858;2023-07-22T08:38:20;1.10;;;1.00;;
23123;SDS011;11731;48.592;8.858;2023-07-22T08:40:48;5.13;;;1.10;;
23123;SDS011;11731;48.592;8.858;2023-07-22T08:43:16;1.43;;;1.33;;
23123;SDS011;11731;48.592;8.858;2023-07-22T08:45:51;1.33;;;1.23;;
23123;SDS011;11731;48.592;8.858;2023-07-22T08:48:25;1.97;;;1.43;;
23123;SDS011;11731;48.592;8.858;2023-07-22T08:50:59;4.27;;;1.60;;
23123;SDS011;11731;48.592;8.858;2023-07-22T08:53:29;3.07;;;1.70;;
23123;SDS011;11731;48.592;8.858;2023-07-22T08:55:58;3.30;;;1.30;;
23123;SDS011;11731;48.592;8.858;2023-07-22T08:58:25;2.43;;;1.50;;
23123;SDS011;11731;48.592;8.858;2023-07-22T09:00:53;2.53;;;1.60;;
23123;SDS011;11731;48.592;8.858;2023-07-22T09:03:23;1.67;;;1.30;;
23123;SDS011;11731;48.592;8.858;2023-07-22T09:05:50;1.57;;;1.47;;
23123;SDS011;11731;48.592;8.858;2023-07-22T09:08:17;1.37;;;1.27;;
23123;SDS011;11731;48.592;8.858;2023-07-22T09:10:44;1.40;;;1.30;;
23123;SDS011;11731;48.592;8.858;2023-07-22T09:13:12;2.30;;;1.50;;
23123;SDS011;11731;48.592;8.858;2023-07-22T09:15:40;2.20;;;1.63;;
23123;SDS011;11731;48.592;8.858;2023-07-22T09:18:07;1.73;;;1.33;;
23123;SDS011;11731;48.592;8.858;2023-07-22T09:20:35;8.73;;;2.27;;
23123;SDS011;11731;48.592;8.858;2023-07-22T09:23:02;1.43;;;1.30;;
23123;SDS011;11731;48.592;8.858;2023-07-22T09:28:16;1.40;;;1.30;;
23123;SDS011;11731;48.592;8.858;2023-07-22T09:30:43;2.40;;;1.37;;
23123;SDS011;11731;48.592;8.858;2023-07-22T09:33:19;2.13;;;1.33;;
23123;SDS011;11731;48.592;8.858;2023-07-22T09:35:49;1.50;;;1.40;;
23123;SDS011;11731;48.592;8.858;2023-07-22T09:38:21;1.57;;;1.47;;
23123;SDS011;11731;48.592;8.858;2023-07-22T09:40:49;1.40;;;1.30;;
23123;SDS011;11731;48.592;8.858;2023-07-22T09:43:16;1.90;;;1.70;;
23123;SDS011;11731;48.592;8.858;2023-07-22T09:45:46;2.00;;;1.30;;
23123;SDS011;11731;48.592;8.858;2023-07-22T09:48:13;1.33;;;1.23;;
23123;SDS011;11731;48.592;8.858;2023-07-22T09:50:40;1.80;;;1.57;;
23123;SDS011;11731;48.592;8.858;2023-07-22T09:53:08;2.33;;;1.70;;
23123;SDS011;11731;48.592;8.858;2023-07-22T09:55:41;2.40;;;1.47;;
23123;SDS011;11731;48.592;8.858;2023-07-22T09:58:09;2.10;;;1.47;;
23123;SDS011;11731;48.592;8.858;2023-07-22T10:00:40;1.60;;;1.50;;
23123;SDS011;11731;48.592;8.858;2023-07-22T10:03:12;3.33;;;1.47;;
23123;SDS011;11731;48.592;8.858;2023-07-22T10:05:39;1.97;;;1.40;;
23123;SDS011;11731;48.592;8.858;2023-07-22T10:08:10;1.90;;;1.30;;
23123;SDS011;11731;48.592;8.858;2023-07-22T10:10:41;2.53;;;1.70;;
23123;SDS011;11731;48.592;8.858;2023-07-22T10:13:09;2.30;;;1.60;;
23123;SDS011;11731;48.592;8.858;2023-07-22T10:15:36;2.00;;;1.40;;
23123;SDS011;11731;48.592;8.858;2023-07-22T10:18:04;2.97;;;1.73;;
23123;SDS011;11731;48.592;8.858;2023-07-22T10:20:31;2.93;;;1.80;;
23123;SDS011;11731;48.592;8.858;2023-07-22T10:22:59;2.23;;;1.63;;
23123;SDS011;11731;48.592;8.858;2023-07-22T10:25:29;1.93;;;1.50;;
23123;SDS011;11731;48.592;8.858;2023-07-22T10:27:56;2.00;;;1.80;;
23123;SDS011;11731;48.592;8.858;2023-07-22T10:30:23;1.97;;;1.57;;
23123;SDS011;11731;48.592;8.858;2023-07-22T10:32:50;3.63;;;1.80;;
23123;SDS011;11731;48.592;8.858;2023-07-22T10:35:21;4.17;;;1.63;;
23123;SDS011;11731;48.592;8.858;2023-07-22T10:37:49;1.73;;;1.50;;
23123;SDS011;11731;48.592;8.858;2023-07-22T10:40:19;1.70;;;1.53;;
23123;SDS011;11731;48.592;8.858;2023-07-22T10:42:55;1.77;;;1.60;;
23123;SDS011;11731;48.592;8.858;2023-07-22T10:45:24;2.60;;;1.63;;
23123;SDS011;11731;48.592;8.858;2023-07-22T10:48:00;1.50;;;1.40;;
23123;SDS011;11731;48.592;8.858;2023-07-22T10:51:04;1.40;;;1.30;;
23123;SDS011;11731;48.592;8.858;2023-07-22T10:53:46;2.27;;;1.70;;
23123;SDS011;11731;48.592;8.858;2023-07-22T10:59:59;2.13;;;1.70;;
23123;SDS011;11731;48.592;8.858;2023-07-22T11:06:22;4.53;;;1.60;;
23123;SDS011;11731;48.592;8.858;2023-07-22T11:18:22;1.63;;;1.53;;
23123;SDS011;11731;48.592;8.858;2023-07-22T11:20:52;2.97;;;1.40;;
23123;SDS011;11731;48.592;8.858;2023-07-22T11:23:22;2.27;;;2.07;;
23123;SDS011;11731;48.592;8.858;2023-07-22T11:42:35;2.40;;;1.90;;
23123;SDS011;11731;48.592;8.858;2023-07-22T11:49:00;1.60;;;1.40;;
23123;SDS011;11731;48.592;8.858;2023-07-22T12:18:48;5.90;;;2.03;;
23123;SDS011;11731;48.592;8.858;2023-07-22T12:34:08;1.90;;;1.70;;
23123;SDS011;11731;48.592;8.858;2023-07-22T12:36:35;4.87;;;2.17;;
23123;SDS011;11731;48.592;8.858;2023-07-22T12:42:41;3.43;;;2.10;;
23123;SDS011;11731;48.592;8.858;2023-07-22T12:44:46;6.00;;;2.30;;
23123;SDS011;11731;48.592;8.858;2023-07-22T12:50:04;3.43;;;2.00;;
23123;SDS011;11731;48.592;8.858;2023-07-22T12:52:32;2.50;;;2.17;;
23123;SDS011;11731;48.592;8.858;2023-07-22T12:55:08;2.43;;;2.00;;
23123;SDS011;11731;48.592;8.858;2023-07-22T12:57:41;2.40;;;2.20;;
23123;SDS011;11731;48.592;8.858;2023-07-22T13:00:18;4.27;;;1.90;;
23123;SDS011;11731;48.592;8.858;2023-07-22T13:03:08;3.30;;;2.40;;
23123;SDS011;11731;48.592;8.858;2023-07-22T13:08:36;3.70;;;2.47;;
23123;SDS011;11731;48.592;8.858;2023-07-22T13:13:48;3.23;;;2.20;;
23123;SDS011;11731;48.592;8.858;2023-07-22T13:16:48;3.93;;;2.30;;
23123;SDS011;11731;48.592;8.858;2023-07-22T13:19:14;2.83;;;2.30;;
23123;SDS011;11731;48.592;8.858;2023-07-22T13:21:44;2.43;;;2.23;;
23123;SDS011;11731;48.592;8.858;2023-07-22T13:24:31;3.40;;;2.37;;
23123;SDS011;11731;48.592;8.858;2023-07-22T13:26:58;3.07;;;2.20;;
23123;SDS011;11731;48.592;8.858;2023-07-22T13:35:22;3.10;;;2.17;;
23123;SDS011;11731;48.592;8.858;2023-07-22T13:37:51;3.80;;;2.23;;
23123;SDS011;11731;48.592;8.858;2023-07-22T13:40:35;2.60;;;1.97;;
23123;SDS011;11731;48.592;8.858;2023-07-22T13:46:42;2.27;;;2.00;;
23123;SDS011;11731;48.592;8.858;2023-07-22T13:49:11;2.00;;;1.80;;
23123;SDS011;11731;48.592;8.858;2023-07-22T14:01:21;3.83;;;2.40;;
23123;SDS011;11731;48.592;8.858;2023-07-22T14:03:48;5.77;;;2.50;;
23123;SDS011;11731;48.592;8.858;2023-07-22T14:06:15;2.67;;;2.30;;
23123;SDS011;11731;48.592;8.858;2023-07-22T14:08:57;2.97;;;1.90;;
23123;SDS011;11731;48.592;8.858;2023-07-22T14:12:00;3.57;;;2.10;;
23123;SDS011;11731;48.592;8.858;2023-07-22T14:15:28;2.70;;;2.30;;
23123;SDS011;11731;48.592;8.858;2023-07-22T14:17:36;2.90;;;2.60;;
23123;SDS011;11731;48.592;8.858;2023-07-22T14:20:04;2.73;;;2.40;;
23123;SDS011;11731;48.592;8.858;2023-07-22T14:22:32;2.90;;;2.10;;
23123;SDS011;11731;48.592;8.858;2023-07-22T14:24:58;2.87;;;2.57;;
23123;SDS011;11731;48.592;8.858;2023-07-22T14:27:58;4.33;;;2.20;;
23123;SDS011;11731;48.592;8.858;2023-07-22T14:36:51;2.90;;;2.13;;
23123;SDS011;11731;48.592;8.858;2023-07-22T14:39:18;5.17;;;2.33;;
23123;SDS011;11731;48.592;8.858;2023-07-22T14:45:02;2.73;;;2.30;;
23123;SDS011;11731;48.592;8.858;2023-07-22T14:47:35;2.87;;;2.23;;
23123;SDS011;11731;48.592;8.858;2023-07-22T14:50:24;4.53;;;2.23;;
23123;SDS011;11731;48.592;8.858;2023-07-22T14:59:35;4.17;;;2.10;;
23123;SDS011;11731;48.592;8.858;2023-07-22T15:02:49;3.53;;;2.23;;
23123;SDS011;11731;48.592;8.858;2023-07-22T15:05:07;2.73;;;2.30;;
23123;SDS011;11731;48.592;8.858;2023-07-22T15:07:34;2.40;;;2.20;;
23123;SDS011;11731;48.592;8.858;2023-07-22T15:12:44;2.43;;;2.20;;
23123;SDS011;11731;48.592;8.858;2023-07-22T15:15:11;4.10;;;2.10;;
23123;SDS011;11731;48.592;8.858;2023-07-22T15:17:38;2.60;;;2.10;;
23123;SDS011;11731;48.592;8.858;2023-07-22T15:20:05;4.87;;;2.53;;
23123;SDS011;11731;48.592;8.858;2023-07-22T15:22:33;2.83;;;2.23;;
23123;SDS011;11731;48.592;8.858;2023-07-22T15:25:00;3.13;;;2.37;;
23123;SDS011;11731;48.592;8.858;2023-07-22T15:31:02;3.90;;;2.60;;
23123;SDS011;11731;48.592;8.858;2023-07-22T15:33:56;4.67;;;2.50;;
23123;SDS011;11731;48.592;8.858;2023-07-22T15:43:01;8.80;;;2.37;;
23123;SDS011;11731;48.592;8.858;2023-07-22T15:45:28;4.23;;;2.37;;
23123;SDS011;11731;48.592;8.858;2023-07-22T15:47:59;2.63;;;2.13;;
23123;SDS011;11731;48.592;8.858;2023-07-22T15:51:30;3.33;;;2.40;;
23123;SDS011;11731;48.592;8.858;2023-07-22T15:53:45;3.30;;;2.30;;
23123;SDS011;11731;48.592;8.858;2023-07-22T15:56:33;3.27;;;2.50;;
23123;SDS011;11731;48.592;8.858;2023-07-22T15:59:00;3.40;;;2.60;;
23123;SDS011;11731;48.592;8.858;2023-07-22T16:01:26;3.30;;;2.63;;
23123;SDS011;11731;48.592;8.858;2023-07-22T16:03:58;3.20;;;2.10;;
23123;SDS011;11731;48.592;8.858;2023-07-22T16:09:44;2.83;;;2.43;;
23123;SDS011;11731;48.592;8.858;2023-07-22T16:12:36;3.20;;;2.50;;
23123;SDS011;11731;48.592;8.858;2023-07-22T16:15:00;3.37;;;2.63;;
23123;SDS011;11731;48.592;8.858;2023-07-22T16:17:30;3.37;;;2.70;;
23123;SDS011;11731;48.592;8.858;2023-07-22T16:19:59;2.80;;;2.33;;
23123;SDS011;11731;48.592;8.858;2023-07-22T16:22:26;3.23;;;2.47;;
23123;SDS011;11731;48.592;8.858;2023-07-22T16:27:45;4.90;;;2.40;;
23123;SDS011;11731;48.592;8.858;2023-07-22T16:33:24;4.53;;;2.13;;
23123;SDS011;11731;48.592;8.858;2023-07-22T16:35:59;3.30;;;2.37;;
23123;SDS011;11731;48.592;8.858;2023-07-22T16:40:34;3.20;;;2.27;;
23123;SDS011;11731;48.592;8.858;2023-07-22T16:49:48;3.33;;;2.33;;
23123;SDS011;11731;48.592;8.858;2023-07-22T16:55:25;2.73;;;2.40;;
23123;SDS011;11731;48.592;8.858;2023-07-22T17:04:11;3.13;;;2.20;;
23123;SDS011;11731;48.592;8.858;2023-07-22T17:06:40;3.17;;;2.27;;
23123;SDS011;11731;48.592;8.858;2023-07-22T17:10:12;4.10;;;2.50;;
23123;SDS011;11731;48.592;8.858;2023-07-22T17:16:00;2.80;;;2.10;;
23123;SDS011;11731;48.592;8.858;2023-07-22T17:18:44;3.23;;;2.30;;
23123;SDS011;11731;48.592;8.858;2023-07-22T17:21:18;2.63;;;2.43;;
23123;SDS011;11731;48.592;8.858;2023-07-22T17:23:47;4.00;;;2.17;;
23123;SDS011;11731;48.592;8.858;2023-07-22T17:26:33;2.83;;;2.20;;
23123;SDS011;11731;48.592;8.858;2023-07-22T17:29:00;3.40;;;2.10;;
23123;SDS011;11731;48.592;8.858;2023-07-22T17:31:28;3.30;;;2.10;;
23123;SDS011;11731;48.592;8.858;2023-07-22T17:33:55;3.80;;;2.43;;
23123;SDS011;11731;48.592;8.858;2023-07-22T17:36:22;2.90;;;2.33;;
23123;SDS011;11731;48.592;8.858;2023-07-22T17:38:49;3.40;;;2.10;;
23123;SDS011;11731;48.592;8.858;2023-07-22T17:41:16;3.47;;;2.53;;
23123;SDS011;11731;48.592;8.858;2023-07-22T17:43:43;2.67;;;2.40;;
23123;SDS011;11731;48.592;8.858;2023-07-22T17:46:10;3.10;;;2.30;;
23123;SDS011;11731;48.592;8.858;2023-07-22T17:48:40;4.40;;;2.20;;
23123;SDS011;11731;48.592;8.858;2023-07-22T17:51:10;2.83;;;2.50;;
23123;SDS011;11731;48.592;8.858;2023-07-22T17:53:37;5.30;;;2.40;;
23123;SDS011;11731;48.592;8.858;2023-07-22T17:56:37;2.97;;;2.33;;
23123;SDS011;11731;48.592;8.858;2023-07-22T17:59:00;2.30;;;2.10;;